createdAt,value
2019-03-31T00:00:04.547Z,1023.30
2019-03-31T00:10:03.139Z,1023.21
2019-03-31T00:20:03.021Z,1023.20
2019-03-31T00:30:04.369Z,1023.21
2019-03-31T00:40:03.059Z,1023.16
2019-03-31T00:50:03.469Z,1023.27
2019-03-31T01:00:03.852Z,1023.19
2019-03-31T01:10:03.481Z,1023.13
2019-03-31T01:20:03.186Z,1023.12
2019-03-31T01:30:03.859Z,1023.10
2019-03-31T01:40:03.706Z,1023.08
2019-03-31T01:50:03.311Z,1023.06
2019-03-31T02:00:03.764Z,1023.03
2019-03-31T02:10:03.105Z,1022.98
2019-03-31T02:20:03.906Z,1022.95
2019-03-31T02:30:03.956Z,1022.90
2019-03-31T02:40:03.674Z,1022.81
2019-03-31T02:50:03.639Z,1022.75
2019-03-31T03:00:04.412Z,1022.74
2019-03-31T03:10:03.558Z,1022.70
2019-03-31T03:20:08.300Z,1022.70
2019-03-31T03:30:04.116Z,1022.68
2019-03-31T03:40:03.324Z,1022.68
2019-03-31T03:50:03.692Z,1022.73
2019-03-31T04:00:04.302Z,1022.64
2019-03-31T04:10:03.736Z,1022.66
2019-03-31T04:20:03.610Z,1022.64
2019-03-31T04:30:03.646Z,1022.68
2019-03-31T04:40:03.496Z,1022.69
2019-03-31T04:50:02.958Z,1022.74
2019-03-31T05:00:03.977Z,1022.83
2019-03-31T05:10:03.599Z,1022.85
2019-03-31T05:20:03.611Z,1022.90
2019-03-31T05:30:04.119Z,1022.95
2019-03-31T05:40:03.590Z,1022.95
2019-03-31T05:50:02.976Z,1022.99
2019-03-31T06:00:04.420Z,1023.02
2019-03-31T06:10:03.645Z,1023.04
2019-03-31T06:20:03.497Z,1023.05
2019-03-31T06:30:03.735Z,1023.03
2019-03-31T06:40:03.545Z,1023.05
2019-03-31T06:50:02.965Z,1023.09
2019-03-31T07:00:04.654Z,1023.05
2019-03-31T07:10:03.680Z,1023.08
2019-03-31T07:20:03.848Z,1022.98
2019-03-31T07:30:07.604Z,1022.95
2019-03-31T07:40:03.617Z,1022.96
2019-03-31T07:50:03.398Z,1022.97
2019-03-31T08:00:04.567Z,1022.94
2019-03-31T08:10:03.027Z,1022.90
2019-03-31T08:20:02.924Z,1022.87
2019-03-31T08:30:04.244Z,1022.85
2019-03-31T08:40:02.771Z,1022.93
2019-03-31T08:50:03.572Z,1022.90
2019-03-31T09:00:04.542Z,1022.82
2019-03-31T09:10:03.695Z,1022.81
2019-03-31T09:20:03.768Z,1022.72
2019-03-31T09:30:04.140Z,1022.71
2019-03-31T09:40:03.629Z,1022.72
2019-03-31T09:50:03.359Z,1022.64
2019-03-31T10:00:04.043Z,1022.57
2019-03-31T10:10:03.323Z,1022.47
2019-03-31T10:20:03.292Z,1022.33
2019-03-31T10:30:03.611Z,1022.17
2019-03-31T10:40:03.692Z,1022.14
2019-03-31T10:50:03.003Z,1022.05
2019-03-31T11:00:04.567Z,1022.01
2019-03-31T11:10:03.660Z,1021.84
2019-03-31T11:20:03.389Z,1021.84
2019-03-31T11:30:03.892Z,1021.73
2019-03-31T11:40:03.529Z,1021.63
2019-03-31T11:50:02.832Z,1021.55
2019-03-31T12:00:04.307Z,1021.53
2019-03-31T12:10:04.180Z,1021.51
2019-03-31T12:20:02.931Z,1021.45
2019-03-31T12:30:04.229Z,1021.36
2019-03-31T12:40:03.057Z,1021.22
2019-03-31T12:50:03.452Z,1021.01
2019-03-31T13:00:03.905Z,1020.98
2019-03-31T13:10:03.441Z,1020.85
2019-03-31T13:20:03.379Z,1020.75
2019-03-31T13:30:03.789Z,1020.68
2019-03-31T13:40:03.154Z,1020.65
2019-03-31T13:50:03.639Z,1020.64
2019-03-31T14:00:04.219Z,1020.55
2019-03-31T14:10:03.618Z,1020.36
2019-03-31T14:20:03.583Z,1020.21
2019-03-31T14:30:04.162Z,1020.18
2019-03-31T14:40:03.181Z,1020.13
2019-03-31T14:50:03.750Z,1019.96
2019-03-31T15:00:15.876Z,1020.03
2019-03-31T15:10:03.617Z,1019.87
2019-03-31T15:20:03.826Z,1020.00
2019-03-31T15:30:04.453Z,1019.93
2019-03-31T15:40:02.925Z,1019.95
2019-03-31T15:50:03.328Z,1019.91
2019-03-31T16:00:03.927Z,1019.94
2019-03-31T16:10:03.205Z,1019.95
2019-03-31T16:20:03.016Z,1019.91
2019-03-31T16:30:04.257Z,1019.96
2019-03-31T16:40:03.066Z,1019.97
2019-03-31T16:50:03.009Z,1019.98
2019-03-31T17:00:04.664Z,1019.96
2019-03-31T17:10:02.877Z,1020.00
2019-03-31T17:20:03.614Z,1020.05
2019-03-31T17:30:04.041Z,1020.09
2019-03-31T17:40:07.706Z,1020.10
2019-03-31T17:50:03.134Z,1020.16
2019-03-31T18:00:04.607Z,1020.15
2019-03-31T18:10:02.960Z,1020.19
2019-03-31T18:20:03.709Z,1020.26
2019-03-31T18:30:05.393Z,1020.33
2019-03-31T18:40:03.491Z,1020.42
2019-03-31T18:50:02.989Z,1020.54
2019-03-31T19:00:04.585Z,1020.53
2019-03-31T19:10:03.034Z,1020.58
2019-03-31T19:20:03.643Z,1020.63
2019-03-31T19:30:04.073Z,1020.66
2019-03-31T19:40:03.533Z,1020.59
2019-03-31T19:50:02.996Z,1020.58
2019-03-31T20:00:03.772Z,1020.58
2019-03-31T20:10:03.654Z,1020.59
2019-03-31T20:20:03.374Z,1020.72
2019-03-31T20:30:04.460Z,1020.79
2019-03-31T20:40:03.773Z,1020.77
2019-03-31T20:50:03.722Z,1020.76
2019-03-31T21:00:04.301Z,1021.08
2019-03-31T21:10:03.342Z,1021.02
2019-03-31T21:20:03.452Z,1021.15
2019-03-31T21:30:03.918Z,1021.20
2019-03-31T21:40:03.475Z,1021.22
2019-03-31T21:50:03.271Z,1021.29
2019-03-31T22:00:03.881Z,1021.42
2019-03-31T22:10:03.518Z,1021.39
2019-03-31T22:20:03.266Z,1021.36
2019-03-31T22:30:04.040Z,1021.29
2019-03-31T22:40:03.963Z,1021.27
2019-03-31T22:50:03.601Z,1021.24
2019-03-31T23:00:03.739Z,1021.28
2019-03-31T23:10:03.468Z,1021.24
2019-03-31T23:20:03.231Z,1021.29
2019-03-31T23:30:04.138Z,1021.28
2019-03-31T23:40:03.398Z,1021.21
2019-03-31T23:50:03.033Z,1021.17
